createdAt,value
2023-03-01T00:01:34.206Z,31.57
2023-03-01T00:04:07.691Z,38.95
2023-03-01T00:06:41.382Z,34.55
2023-03-01T00:09:15.459Z,34.27
2023-03-01T00:11:49.437Z,38.13
2023-03-01T00:14:22.389Z,38.15
2023-03-01T00:16:56.953Z,35.90
2023-03-01T00:19:29.715Z,40.43
2023-03-01T00:22:03.189Z,38.57
2023-03-01T00:24:37.432Z,37.17
2023-03-01T00:27:10.168Z,40.08
2023-03-01T00:29:43.864Z,35.17
2023-03-01T00:32:17.039Z,42.40
2023-03-01T00:34:51.784Z,33.40
2023-03-01T00:37:26.864Z,34.25
2023-03-01T00:40:00.325Z,32.88
2023-03-01T00:42:33.777Z,34.78
2023-03-01T00:45:09.068Z,37.05
2023-03-01T00:47:41.946Z,40.05
2023-03-01T00:50:15.036Z,42.20
2023-03-01T00:52:48.391Z,35.35
2023-03-01T00:55:20.995Z,32.57
2023-03-01T00:57:54.125Z,31.70
2023-03-01T01:00:28.573Z,31.17
2023-03-01T01:03:01.387Z,33.53
2023-03-01T01:05:36.950Z,33.10
2023-03-01T01:08:10.694Z,29.92
2023-03-01T01:10:45.227Z,35.45
2023-03-01T01:13:18.887Z,33.42
2023-03-01T01:15:52.050Z,36.15
2023-03-01T01:18:24.780Z,35.38
2023-03-01T01:20:58.180Z,28.83
2023-03-01T01:23:31.388Z,34.35
2023-03-01T01:26:13.777Z,37.25
2023-03-01T01:28:47.812Z,35.43
2023-03-01T01:31:24.432Z,32.78
2023-03-01T01:33:58.624Z,38.42
2023-03-01T01:39:04.719Z,34.13
2023-03-01T01:41:37.648Z,36.20
2023-03-01T01:44:27.618Z,36.73
2023-03-01T01:47:07.112Z,36.98
2023-03-01T01:49:47.869Z,35.28
2023-03-01T01:52:31.871Z,38.92
2023-03-01T01:55:23.435Z,37.20
2023-03-01T01:58:00.654Z,35.70
2023-03-01T02:00:34.414Z,39.75
2023-03-01T02:03:19.054Z,40.05
2023-03-01T02:06:22.039Z,38.75
2023-03-01T02:08:56.235Z,40.45
2023-03-01T02:11:32.647Z,40.52
2023-03-01T02:14:05.510Z,36.08
2023-03-01T02:16:38.736Z,38.23
2023-03-01T02:19:17.048Z,39.73
2023-03-01T02:22:22.040Z,37.10
2023-03-01T02:25:20.304Z,41.20
2023-03-01T02:28:19.805Z,42.03
2023-03-01T02:31:11.507Z,39.83
2023-03-01T02:33:45.233Z,40.63
2023-03-01T02:36:25.453Z,41.60
2023-03-01T02:39:00.709Z,39.03
2023-03-01T02:41:38.146Z,36.45
2023-03-01T02:44:12.684Z,36.53
2023-03-01T02:46:53.641Z,38.63
2023-03-01T02:49:36.855Z,42.80
2023-03-01T02:52:49.184Z,43.98
2023-03-01T02:55:22.417Z,37.85
2023-03-01T02:57:55.253Z,42.50
2023-03-01T03:00:35.239Z,43.60
2023-03-01T03:03:10.515Z,43.70
2023-03-01T03:05:44.671Z,43.75
2023-03-01T03:08:20.628Z,46.15
2023-03-01T03:10:54.272Z,44.95
2023-03-01T03:13:29.045Z,46.70
2023-03-01T03:16:01.920Z,43.85
2023-03-01T03:18:35.375Z,43.25
2023-03-01T03:21:13.590Z,45.20
2023-03-01T03:23:46.987Z,48.42
2023-03-01T03:26:19.975Z,50.83
2023-03-01T03:28:53.220Z,48.95
2023-03-01T03:31:26.171Z,50.52
2023-03-01T03:34:00.257Z,55.78
2023-03-01T03:36:33.480Z,52.00
2023-03-01T03:39:09.284Z,50.03
2023-03-01T03:41:43.247Z,52.50
2023-03-01T03:44:16.027Z,55.33
2023-03-01T03:46:49.104Z,58.52
2023-03-01T03:49:21.891Z,50.57
2023-03-01T03:51:54.595Z,56.77
2023-03-01T03:54:28.957Z,53.33
2023-03-01T03:57:02.667Z,57.13
2023-03-01T03:59:35.919Z,61.10
2023-03-01T04:02:10.195Z,56.20
2023-03-01T04:04:43.779Z,61.83
2023-03-01T04:07:16.555Z,56.67
2023-03-01T04:09:50.670Z,52.58
2023-03-01T04:12:24.247Z,61.07
2023-03-01T04:14:57.495Z,51.02
2023-03-01T04:17:30.802Z,57.50
2023-03-01T04:20:05.865Z,60.38
2023-03-01T04:22:40.618Z,68.20
2023-03-01T04:25:15.284Z,59.67
2023-03-01T04:27:48.785Z,61.65
2023-03-01T04:30:21.724Z,59.75
2023-03-01T04:32:54.547Z,53.87
2023-03-01T04:35:29.132Z,55.95
2023-03-01T04:38:02.454Z,51.68
2023-03-01T04:40:37.133Z,65.20
2023-03-01T04:43:14.992Z,63.85
2023-03-01T04:45:47.809Z,58.15
2023-03-01T04:48:20.818Z,59.10
2023-03-01T04:53:40.903Z,63.15
2023-03-01T04:56:15.108Z,54.38
2023-03-01T04:58:48.725Z,57.33
2023-03-01T05:01:23.514Z,58.10
2023-03-01T05:03:56.561Z,56.28
2023-03-01T05:06:29.639Z,62.15
2023-03-01T05:09:02.664Z,64.75
2023-03-01T05:11:37.138Z,59.03
2023-03-01T05:14:12.208Z,59.93
2023-03-01T05:19:21.088Z,59.98
2023-03-01T05:22:06.259Z,55.52
2023-03-01T05:24:39.953Z,62.17
2023-03-01T05:27:14.509Z,59.58
2023-03-01T05:29:47.952Z,52.50
2023-03-01T05:32:20.852Z,58.83
2023-03-01T05:34:53.838Z,57.03
2023-03-01T05:37:27.146Z,65.87
2023-03-01T05:40:00.436Z,59.03
2023-03-01T05:42:33.948Z,53.83
2023-03-01T05:45:10.277Z,59.40
2023-03-01T05:47:47.799Z,81.05
2023-03-01T05:50:30.010Z,60.28
2023-03-01T05:53:07.072Z,72.70
2023-03-01T05:55:41.456Z,51.83
2023-03-01T05:58:17.641Z,50.67
2023-03-01T06:00:53.977Z,53.05
2023-03-01T06:03:27.177Z,56.92
2023-03-01T06:06:01.024Z,53.58
2023-03-01T06:08:34.231Z,50.12
2023-03-01T06:11:09.264Z,49.73
2023-03-01T06:13:46.574Z,49.42
2023-03-01T06:16:20.175Z,53.33
2023-03-01T06:18:54.952Z,50.80
2023-03-01T06:21:28.315Z,59.03
2023-03-01T06:24:01.268Z,50.33
2023-03-01T06:26:34.138Z,52.95
2023-03-01T06:29:06.947Z,49.20
2023-03-01T06:31:40.443Z,46.42
2023-03-01T06:34:14.902Z,49.67
2023-03-01T06:36:48.600Z,55.55
2023-03-01T06:39:22.385Z,56.48
2023-03-01T06:41:55.492Z,57.20
2023-03-01T06:44:28.755Z,47.75
2023-03-01T06:47:02.207Z,49.83
2023-03-01T06:49:35.096Z,49.67
2023-03-01T06:52:08.128Z,47.53
2023-03-01T06:54:41.612Z,44.20
2023-03-01T06:57:15.482Z,48.25
2023-03-01T06:59:50.764Z,41.68
2023-03-01T07:02:23.985Z,41.50
2023-03-01T07:04:57.394Z,54.38
2023-03-01T07:07:30.892Z,46.18
2023-03-01T07:10:04.139Z,41.37
2023-03-01T07:12:37.330Z,42.25
2023-03-01T07:15:12.525Z,52.20
2023-03-01T07:17:48.660Z,37.03
2023-03-01T07:20:26.780Z,45.03
2023-03-01T07:23:00.019Z,44.75
2023-03-01T07:25:33.491Z,39.98
2023-03-01T07:28:07.749Z,42.13
2023-03-01T07:30:41.690Z,37.75
2023-03-01T07:33:15.749Z,57.13
2023-03-01T07:38:21.984Z,39.98
2023-03-01T07:40:55.552Z,43.80
2023-03-01T07:43:29.195Z,36.80
2023-03-01T07:46:04.827Z,40.67
2023-03-01T07:48:38.709Z,39.73
2023-03-01T07:51:13.681Z,37.38
2023-03-01T07:53:51.204Z,37.17
2023-03-01T07:56:24.732Z,36.53
2023-03-01T07:58:57.859Z,38.53
2023-03-01T08:01:31.751Z,28.85
2023-03-01T08:04:06.416Z,36.40
2023-03-01T08:06:39.986Z,36.48
2023-03-01T08:09:12.856Z,33.83
2023-03-01T08:11:46.355Z,34.03
2023-03-01T08:14:19.761Z,37.33
2023-03-01T08:16:53.654Z,33.78
2023-03-01T08:19:26.966Z,31.62
2023-03-01T08:22:01.212Z,35.58
2023-03-01T08:24:34.602Z,31.82
2023-03-01T08:27:08.244Z,35.63
2023-03-01T08:29:41.750Z,31.37
2023-03-01T08:32:15.432Z,35.23
2023-03-01T08:34:50.433Z,37.17
2023-03-01T08:39:56.276Z,39.73
2023-03-01T08:42:29.734Z,34.30
2023-03-01T08:45:02.556Z,38.92
2023-03-01T08:47:35.804Z,30.15
2023-03-01T08:50:10.410Z,26.17
2023-03-01T08:52:43.065Z,28.15
2023-03-01T08:55:18.626Z,33.78
2023-03-01T08:57:51.996Z,31.57
2023-03-01T09:00:26.259Z,23.27
2023-03-01T09:03:00.730Z,30.80
2023-03-01T09:05:38.107Z,26.17
2023-03-01T09:08:11.700Z,28.62
2023-03-01T09:10:44.965Z,27.70
2023-03-01T09:13:17.723Z,26.60
2023-03-01T09:15:51.590Z,28.98
2023-03-01T09:18:24.366Z,25.40
2023-03-01T09:21:10.312Z,26.80
2023-03-01T09:23:47.764Z,24.72
2023-03-01T09:26:24.258Z,23.75
2023-03-01T09:28:59.246Z,22.07
2023-03-01T09:31:32.771Z,29.23
2023-03-01T09:34:05.774Z,25.10
2023-03-01T09:36:39.382Z,24.15
2023-03-01T09:39:12.922Z,22.32
2023-03-01T09:41:53.778Z,23.27
2023-03-01T09:44:58.874Z,23.62
2023-03-01T09:47:35.498Z,21.68
2023-03-01T09:50:21.130Z,22.75
2023-03-01T09:53:08.485Z,21.33
2023-03-01T09:55:54.954Z,24.80
2023-03-01T09:59:00.396Z,24.75
2023-03-01T10:01:42.917Z,16.90
2023-03-01T10:04:31.046Z,20.30
2023-03-01T10:07:42.933Z,18.70
2023-03-01T10:10:23.285Z,24.25
2023-03-01T10:12:57.879Z,17.90
2023-03-01T10:15:41.859Z,14.73
2023-03-01T10:18:20.902Z,14.18
2023-03-01T10:21:02.405Z,18.35
2023-03-01T10:23:36.380Z,18.25
2023-03-01T10:26:28.744Z,18.80
2023-03-01T10:29:11.482Z,17.15
2023-03-01T10:31:51.113Z,18.42
2023-03-01T10:34:36.906Z,22.07
2023-03-01T10:37:23.130Z,21.57
2023-03-01T10:40:11.663Z,17.67
2023-03-01T10:42:52.470Z,16.40
2023-03-01T10:45:40.990Z,16.60
2023-03-01T10:48:29.709Z,17.00
2023-03-01T10:51:07.344Z,17.40
2023-03-01T10:53:49.232Z,19.55
2023-03-01T10:56:22.183Z,15.50
2023-03-01T10:59:11.550Z,15.23
2023-03-01T11:01:44.685Z,13.83
2023-03-01T11:04:18.668Z,11.90
2023-03-01T11:06:56.716Z,16.10
2023-03-01T11:09:37.338Z,19.02
2023-03-01T11:12:18.602Z,13.60
2023-03-01T11:14:58.876Z,14.40
2023-03-01T11:17:48.043Z,11.03
2023-03-01T11:20:34.870Z,15.78
2023-03-01T11:23:16.608Z,16.90
2023-03-01T11:26:00.288Z,19.02
2023-03-01T11:28:34.246Z,12.10
2023-03-01T11:31:16.679Z,16.65
2023-03-01T11:34:07.054Z,13.00
2023-03-01T11:36:47.386Z,13.20
2023-03-01T11:39:30.820Z,13.00
2023-03-01T11:42:23.087Z,18.87
2023-03-01T11:44:58.412Z,20.68
2023-03-01T11:48:02.139Z,21.55
2023-03-01T11:50:48.194Z,12.65
2023-03-01T11:53:59.053Z,18.82
2023-03-01T11:56:46.037Z,16.35
2023-03-01T11:59:35.615Z,11.20
2023-03-01T12:02:19.011Z,14.45
2023-03-01T12:05:28.120Z,14.80
2023-03-01T12:08:31.762Z,18.00
2023-03-01T12:11:33.344Z,11.97
2023-03-01T12:14:18.173Z,17.37
2023-03-01T12:17:19.468Z,14.20
2023-03-01T12:20:15.832Z,14.87
2023-03-01T12:23:20.855Z,19.90
2023-03-01T12:26:20.883Z,23.45
2023-03-01T12:29:04.227Z,20.30
2023-03-01T12:32:12.809Z,20.23
2023-03-01T12:35:08.977Z,22.00
2023-03-01T12:38:26.818Z,18.27
2023-03-01T12:41:25.321Z,16.27
2023-03-01T12:44:23.688Z,21.05
2023-03-01T13:13:18.569Z,23.92
2023-03-01T13:15:53.364Z,24.65
2023-03-01T13:18:30.977Z,24.57
2023-03-01T13:21:06.084Z,28.95
2023-03-01T13:23:41.715Z,32.15
2023-03-01T13:26:19.560Z,28.77
2023-03-01T13:28:57.813Z,28.67
2023-03-01T13:31:35.557Z,29.10
2023-03-01T13:34:11.562Z,25.23
2023-03-01T13:36:52.264Z,29.18
2023-03-01T13:39:38.072Z,25.02
2023-03-01T13:42:32.051Z,23.05
2023-03-01T13:45:04.966Z,24.87
2023-03-01T13:47:37.873Z,23.85
2023-03-01T13:50:27.345Z,24.45
2023-03-01T13:53:05.788Z,24.57
2023-03-01T13:55:57.013Z,30.57
2023-03-01T13:58:38.885Z,24.77
2023-03-01T14:01:29.477Z,28.73
2023-03-01T14:04:04.964Z,20.05
2023-03-01T14:06:38.051Z,22.42
2023-03-01T14:09:26.446Z,19.48
2023-03-01T14:12:28.156Z,25.95
2023-03-01T14:15:41.478Z,26.37
2023-03-01T14:18:24.733Z,22.37
2023-03-01T14:20:58.507Z,19.77
2023-03-01T14:23:31.659Z,24.00
2023-03-01T14:26:04.940Z,31.55
2023-03-01T14:28:40.246Z,24.57
2023-03-01T14:31:52.384Z,23.73
2023-03-01T14:34:24.809Z,24.47
2023-03-01T14:36:58.220Z,22.42
2023-03-01T14:39:31.838Z,24.05
2023-03-01T14:42:15.429Z,29.95
2023-03-01T14:44:46.051Z,28.30
2023-03-01T14:47:29.964Z,29.40
2023-03-01T14:50:13.087Z,29.45
2023-03-01T14:52:48.708Z,27.63
2023-03-01T14:55:37.638Z,24.92
2023-03-01T14:58:16.416Z,25.37
2023-03-01T15:01:04.009Z,24.77
2023-03-01T15:03:39.858Z,26.25
2023-03-01T15:06:14.859Z,25.75
2023-03-01T15:08:58.682Z,24.50
2023-03-01T15:14:29.288Z,24.98
2023-03-01T15:17:02.107Z,22.82
2023-03-01T15:22:11.433Z,21.17
2023-03-01T15:24:44.431Z,26.97
2023-03-01T15:27:21.383Z,22.75
2023-03-01T15:30:01.219Z,18.65
2023-03-01T15:32:39.595Z,20.23
2023-03-01T15:35:49.443Z,23.00
2023-03-01T15:38:36.491Z,22.80
2023-03-01T15:41:35.464Z,22.35
2023-03-01T15:44:22.042Z,18.55
2023-03-01T15:46:55.085Z,20.15
2023-03-01T15:49:54.914Z,21.23
2023-03-01T15:52:39.188Z,20.72
2023-03-01T15:55:34.399Z,19.12
2023-03-01T15:58:22.963Z,19.98
2023-03-01T16:01:02.292Z,25.52
2023-03-01T16:03:34.601Z,23.60
2023-03-01T16:06:07.743Z,22.32
2023-03-01T16:08:42.325Z,19.32
2023-03-01T16:11:21.004Z,18.30
2023-03-01T16:13:53.820Z,23.27
2023-03-01T16:16:27.502Z,19.25
2023-03-01T16:19:00.153Z,24.77
2023-03-01T16:21:33.434Z,22.95
2023-03-01T16:24:07.674Z,20.17
2023-03-01T16:29:13.391Z,20.02
2023-03-01T16:34:18.968Z,22.70
2023-03-01T16:36:51.746Z,24.60
2023-03-01T16:39:25.118Z,23.45
2023-03-01T16:41:58.163Z,23.83
2023-03-01T16:44:31.658Z,25.55
2023-03-01T16:47:04.950Z,21.02
2023-03-01T16:49:37.810Z,23.05
2023-03-01T16:52:10.565Z,29.27
2023-03-01T16:54:43.487Z,30.40
2023-03-01T16:57:17.595Z,25.43
2023-03-01T16:59:52.031Z,28.90
2023-03-01T17:02:26.252Z,25.95
2023-03-01T17:04:59.663Z,29.02
2023-03-01T17:07:35.387Z,34.60
2023-03-01T17:10:12.142Z,30.02
2023-03-01T17:12:45.350Z,27.32
2023-03-01T17:15:18.196Z,29.80
2023-03-01T17:17:52.275Z,26.40
2023-03-01T17:20:26.180Z,30.10
2023-03-01T17:22:59.030Z,26.70
2023-03-01T17:25:32.152Z,25.50
2023-03-01T17:28:05.224Z,36.07
2023-03-01T17:30:38.677Z,24.50
2023-03-01T17:33:11.499Z,29.82
2023-03-01T17:35:46.349Z,27.77
2023-03-01T17:38:20.167Z,28.75
2023-03-01T17:40:53.333Z,28.12
2023-03-01T17:43:26.741Z,27.50
2023-03-01T17:46:00.691Z,27.60
2023-03-01T17:48:33.707Z,29.67
2023-03-01T17:51:12.187Z,26.40
2023-03-01T17:53:45.394Z,26.10
2023-03-01T17:56:18.475Z,35.17
2023-03-01T17:58:51.159Z,27.67
2023-03-01T18:01:24.916Z,28.52
2023-03-01T18:03:57.864Z,22.17
2023-03-01T18:06:31.582Z,23.10
2023-03-01T18:11:37.849Z,23.25
2023-03-01T18:14:11.259Z,24.63
2023-03-01T18:16:44.090Z,24.07
2023-03-01T18:19:17.645Z,22.87
2023-03-01T18:21:50.875Z,22.23
2023-03-01T18:24:23.680Z,23.32
2023-03-01T18:26:57.001Z,22.65
2023-03-01T18:29:29.795Z,22.15
2023-03-01T18:32:02.602Z,20.30
2023-03-01T18:34:35.433Z,21.65
2023-03-01T18:37:10.389Z,18.20
2023-03-01T18:39:43.687Z,10.00
2023-03-01T18:42:17.292Z,7.75
2023-03-01T18:44:50.841Z,8.85
2023-03-01T18:47:23.692Z,7.37
2023-03-01T18:49:56.437Z,8.25
2023-03-01T18:52:29.124Z,8.28
2023-03-01T18:57:35.369Z,12.15
2023-03-01T19:00:10.711Z,14.15
2023-03-01T19:02:43.651Z,10.70
2023-03-01T19:05:17.665Z,9.23
2023-03-01T19:07:52.534Z,8.33
2023-03-01T19:10:26.366Z,9.03
2023-03-01T19:12:59.339Z,9.08
2023-03-01T19:15:32.471Z,5.63
2023-03-01T19:18:06.172Z,9.98
2023-03-01T19:20:39.586Z,8.18
2023-03-01T19:23:14.430Z,13.20
2023-03-01T19:25:47.091Z,15.20
2023-03-01T19:28:20.564Z,19.23
2023-03-01T19:30:53.853Z,15.00
2023-03-01T19:33:26.657Z,14.45
2023-03-01T19:35:59.731Z,10.85
2023-03-01T19:38:32.988Z,10.23
2023-03-01T19:41:15.004Z,11.25
2023-03-01T19:43:49.112Z,9.35
2023-03-01T19:46:21.994Z,12.47
2023-03-01T19:48:55.377Z,9.28
2023-03-01T19:51:28.925Z,13.83
2023-03-01T19:54:02.097Z,10.00
2023-03-01T19:56:35.626Z,10.68
2023-03-01T19:59:09.326Z,15.23
2023-03-01T20:01:43.177Z,11.95
2023-03-01T20:06:50.124Z,16.15
2023-03-01T20:09:23.105Z,13.48
2023-03-01T20:11:56.563Z,14.80
2023-03-01T20:14:31.237Z,14.98
2023-03-01T20:17:03.832Z,13.13
2023-03-01T20:19:36.647Z,16.87
2023-03-01T20:22:09.658Z,17.17
2023-03-01T20:24:43.929Z,23.90
2023-03-01T20:27:17.290Z,41.70
2023-03-01T20:29:50.162Z,84.45
2023-03-01T20:32:23.248Z,71.45
2023-03-01T20:34:56.133Z,47.45
2023-03-01T20:37:28.957Z,86.20
2023-03-01T20:40:01.717Z,65.80
2023-03-01T20:42:34.885Z,139.83
2023-03-01T20:45:08.916Z,47.10
2023-03-01T20:47:42.603Z,49.93
2023-03-01T20:50:15.774Z,30.25
2023-03-01T20:52:50.311Z,30.57
2023-03-01T20:55:23.248Z,17.55
2023-03-01T20:57:56.932Z,17.57
2023-03-01T21:00:31.540Z,19.25
2023-03-01T21:03:04.732Z,16.42
2023-03-01T21:05:37.565Z,17.17
2023-03-01T21:08:10.194Z,12.45
2023-03-01T21:10:44.510Z,11.78
2023-03-01T21:13:17.207Z,11.05
2023-03-01T21:16:03.575Z,16.17
2023-03-01T21:18:37.986Z,13.43
2023-03-01T21:21:17.766Z,13.05
2023-03-01T21:23:50.825Z,12.20
2023-03-01T21:26:27.190Z,12.73
2023-03-01T21:29:04.765Z,11.08
2023-03-01T21:31:38.470Z,10.05
2023-03-01T21:34:13.607Z,13.98
2023-03-01T21:36:46.701Z,9.73
2023-03-01T21:39:19.722Z,8.93
2023-03-01T21:41:53.097Z,9.35
2023-03-01T21:44:27.751Z,10.55
2023-03-01T21:47:00.787Z,7.30
2023-03-01T21:49:33.724Z,9.23
2023-03-01T21:52:06.825Z,9.88
2023-03-01T21:54:40.158Z,13.15
2023-03-01T21:57:14.080Z,10.60
2023-03-01T21:59:47.457Z,11.20
2023-03-01T22:02:20.646Z,12.07
2023-03-01T22:04:57.725Z,12.85
2023-03-01T22:07:32.335Z,10.85
2023-03-01T22:10:05.327Z,12.45
2023-03-01T22:12:38.733Z,8.88
2023-03-01T22:15:11.914Z,12.60
2023-03-01T22:17:45.476Z,9.75
2023-03-01T22:20:19.344Z,11.90
2023-03-01T22:22:52.114Z,11.78
2023-03-01T22:25:25.440Z,10.60
2023-03-01T22:27:58.632Z,14.75
2023-03-01T22:30:31.790Z,14.05
2023-03-01T22:33:04.772Z,10.03
2023-03-01T22:35:38.093Z,9.00
2023-03-01T22:38:11.506Z,11.12
2023-03-01T22:40:44.219Z,9.00
2023-03-01T22:45:50.104Z,10.55
2023-03-01T22:48:23.225Z,8.83
2023-03-01T22:50:56.179Z,11.90
2023-03-01T22:53:29.042Z,19.75
2023-03-01T22:56:19.226Z,21.27
2023-03-01T22:58:52.972Z,19.77
2023-03-01T23:01:27.833Z,19.25
2023-03-01T23:04:01.324Z,23.18
2023-03-01T23:06:35.085Z,26.23
2023-03-01T23:09:08.186Z,13.08
2023-03-01T23:11:41.475Z,14.18
2023-03-01T23:14:14.834Z,12.85
2023-03-01T23:16:48.509Z,11.97
2023-03-01T23:19:21.609Z,14.70
2023-03-01T23:21:55.208Z,14.18
2023-03-01T23:24:30.520Z,23.32
2023-03-01T23:27:04.913Z,17.82
2023-03-01T23:29:37.998Z,27.65
2023-03-01T23:32:12.260Z,27.58
2023-03-01T23:34:46.643Z,23.67
2023-03-01T23:37:19.567Z,25.10
2023-03-01T23:39:52.796Z,20.15
2023-03-01T23:42:25.440Z,18.82
2023-03-01T23:44:58.327Z,19.50
2023-03-01T23:47:31.365Z,17.15
2023-03-01T23:50:05.895Z,18.25
2023-03-01T23:52:41.969Z,17.75
2023-03-01T23:55:16.577Z,13.05
2023-03-01T23:57:49.492Z,13.65
